NJE1LT LTBS-LGIR
Flight info
| Callsign | NJE1LT |
|---|---|
| Flight time | 0h 42m |
| Altitude | 32000 |
| Route | SOTIV N136 RDS V57 LABUX |
| Aircraft | E45X/M-SABDFGRW/S |
Departure
| Time | 2026-04-20 18:08 |
|---|---|
| Airport | Dalaman International Airport (LTBS) |
Arrival
| Time | 2026-04-20 18:50 |
|---|---|
| Airport | Heraklion International Nikos Kazantzakis Airport (LGIR) |
| Time | Latitude | Longitude | Altitude | Speed | Heading |
|---|---|---|---|---|---|
| 2026-04-20 17:45 | 36.71665 | 28.78849 | 21 ft | 0 kts | 285° |
| 2026-04-20 17:58 | 36.71663 | 28.78858 | 21 ft | 2 kts | 285° |
| 2026-04-20 17:59 | 36.71659 | 28.78876 | 21 ft | 2 kts | 285° |
| 2026-04-20 17:59 | 36.71656 | 28.78894 | 21 ft | 2 kts | 285° |
| 2026-04-20 17:59 | 36.71653 | 28.78905 | 21 ft | 2 kts | 278° |
| 2026-04-20 17:59 | 36.71655 | 28.78923 | 21 ft | 2 kts | 246° |
| 2026-04-20 18:00 | 36.71663 | 28.78938 | 21 ft | 2 kts | 217° |
| 2026-04-20 18:00 | 36.71674 | 28.78945 | 21 ft | 1 kts | 194° |
| 2026-04-20 18:00 | 36.71675 | 28.78946 | 21 ft | 0 kts | 194° |
| 2026-04-20 18:02 | 36.71674 | 28.78945 | 21 ft | 0 kts | 194° |
| 2026-04-20 18:02 | 36.71658 | 28.78939 | 21 ft | 4 kts | 197° |
| 2026-04-20 18:02 | 36.71618 | 28.78926 | 20 ft | 7 kts | 195° |
| 2026-04-20 18:03 | 36.71553 | 28.78904 | 20 ft | 11 kts | 195° |
| 2026-04-20 18:03 | 36.71464 | 28.78872 | 19 ft | 14 kts | 195° |
| 2026-04-20 18:03 | 36.71386 | 28.78847 | 18 ft | 8 kts | 181° |
| 2026-04-20 18:03 | 36.71348 | 28.78908 | 18 ft | 11 kts | 106° |
| 2026-04-20 18:04 | 36.71331 | 28.78986 | 17 ft | 7 kts | 104° |
| 2026-04-20 18:04 | 36.71289 | 28.79023 | 17 ft | 10 kts | 185° |
| 2026-04-20 18:04 | 36.71207 | 28.78998 | 17 ft | 13 kts | 194° |
| 2026-04-20 18:04 | 36.71104 | 28.78963 | 16 ft | 17 kts | 196° |
| 2026-04-20 18:05 | 36.70827 | 28.78868 | 14 ft | 23 kts | 195° |
| 2026-04-20 18:05 | 36.70660 | 28.78812 | 13 ft | 23 kts | 196° |
| 2026-04-20 18:05 | 36.70498 | 28.78758 | 13 ft | 23 kts | 195° |
| 2026-04-20 18:06 | 36.70336 | 28.78701 | 14 ft | 25 kts | 195° |
| 2026-04-20 18:06 | 36.70169 | 28.78645 | 15 ft | 19 kts | 196° |
| 2026-04-20 18:06 | 36.70098 | 28.78631 | 15 ft | 8 kts | 164° |
| 2026-04-20 18:06 | 36.70054 | 28.78691 | 15 ft | 10 kts | 106° |
| 2026-04-20 18:07 | 36.70061 | 28.78789 | 16 ft | 10 kts | 70° |
| 2026-04-20 18:07 | 36.70092 | 28.78833 | 16 ft | 6 kts | 18° |
| 2026-04-20 18:07 | 36.70174 | 28.78862 | 15 ft | 28 kts | 15° |
| 2026-04-20 18:07 | 36.70684 | 28.79035 | 12 ft | 118 kts | 18° |
| 2026-04-20 18:08 | 36.71671 | 28.79362 | 184 ft | 163 kts | 14° |
| 2026-04-20 18:08 | 36.72790 | 28.79667 | 875 ft | 174 kts | 8° |
| 2026-04-20 18:08 | 36.74017 | 28.79723 | 1718 ft | 188 kts | 1° |
| 2026-04-20 18:08 | 36.75409 | 28.79739 | 2541 ft | 211 kts | 1° |
| 2026-04-20 18:09 | 36.76866 | 28.79743 | 3702 ft | 216 kts | 0° |
| 2026-04-20 18:09 | 36.78336 | 28.79745 | 4855 ft | 214 kts | 0° |
| 2026-04-20 18:09 | 36.79804 | 28.79629 | 5749 ft | 220 kts | 345° |
| 2026-04-20 18:09 | 36.81249 | 28.78700 | 6108 ft | 248 kts | 328° |
| 2026-04-20 18:10 | 36.82761 | 28.77521 | 6372 ft | 259 kts | 329° |
| 2026-04-20 18:10 | 36.84288 | 28.76351 | 6611 ft | 256 kts | 329° |
| 2026-04-20 18:10 | 36.85797 | 28.75198 | 6824 ft | 256 kts | 329° |
| 2026-04-20 18:10 | 36.87334 | 28.74023 | 6944 ft | 258 kts | 329° |
| 2026-04-20 18:11 | 36.88841 | 28.72805 | 7057 ft | 259 kts | 320° |
| 2026-04-20 18:11 | 36.89838 | 28.70959 | 7200 ft | 262 kts | 290° |
| 2026-04-20 18:11 | 36.90056 | 28.68699 | 7348 ft | 263 kts | 274° |
| 2026-04-20 18:11 | 36.90163 | 28.66423 | 7466 ft | 264 kts | 275° |
| 2026-04-20 18:12 | 36.90278 | 28.64100 | 7592 ft | 265 kts | 276° |
| 2026-04-20 18:12 | 36.90392 | 28.61807 | 7721 ft | 266 kts | 276° |
| 2026-04-20 18:12 | 36.90506 | 28.59515 | 7837 ft | 267 kts | 276° |
| 2026-04-20 18:12 | 36.90623 | 28.57171 | 7964 ft | 272 kts | 276° |
| 2026-04-20 18:13 | 36.90739 | 28.54795 | 8742 ft | 278 kts | 276° |
| 2026-04-20 18:13 | 36.90493 | 28.52473 | 9919 ft | 275 kts | 250° |
| 2026-04-20 18:13 | 36.89411 | 28.50419 | 10239 ft | 306 kts | 227° |
| 2026-04-20 18:13 | 36.87498 | 28.48993 | 10450 ft | 338 kts | 200° |
| 2026-04-20 18:14 | 36.85216 | 28.47976 | 10849 ft | 354 kts | 207° |
| 2026-04-20 18:14 | 36.82955 | 28.46648 | 11364 ft | 366 kts | 207° |
| 2026-04-20 18:14 | 36.80651 | 28.45293 | 12259 ft | 366 kts | 208° |
| 2026-04-20 18:14 | 36.78346 | 28.43938 | 13053 ft | 369 kts | 208° |
| 2026-04-20 18:15 | 36.75991 | 28.42727 | 13754 ft | 376 kts | 197° |
| 2026-04-20 18:15 | 36.73372 | 28.42427 | 14463 ft | 383 kts | 182° |
| 2026-04-20 18:15 | 36.70686 | 28.42365 | 15174 ft | 386 kts | 184° |
| 2026-04-20 18:15 | 36.67978 | 28.42293 | 15856 ft | 390 kts | 184° |
| 2026-04-20 18:16 | 36.65288 | 28.42221 | 16520 ft | 394 kts | 184° |
| 2026-04-20 18:16 | 36.62537 | 28.42681 | 17221 ft | 400 kts | 164° |
| 2026-04-20 18:16 | 36.59903 | 28.43962 | 17778 ft | 405 kts | 165° |
| 2026-04-20 18:16 | 36.57160 | 28.44385 | 18454 ft | 400 kts | 186° |
| 2026-04-20 18:17 | 36.54518 | 28.43597 | 19217 ft | 391 kts | 207° |
| 2026-04-20 18:17 | 36.52101 | 28.42036 | 20009 ft | 385 kts | 217° |
| 2026-04-20 18:17 | 36.50203 | 28.39838 | 20721 ft | 374 kts | 239° |
| 2026-04-20 18:17 | 36.49032 | 28.37028 | 21527 ft | 367 kts | 248° |
| 2026-04-20 18:18 | 36.47671 | 28.34303 | 22286 ft | 369 kts | 240° |
| 2026-04-20 18:18 | 36.46298 | 28.31670 | 23075 ft | 367 kts | 241° |
| 2026-04-20 18:18 | 36.44915 | 28.29029 | 23905 ft | 363 kts | 241° |
| 2026-04-20 18:18 | 36.43548 | 28.26422 | 24724 ft | 361 kts | 241° |
| 2026-04-20 18:19 | 36.42178 | 28.23812 | 25522 ft | 359 kts | 242° |
| 2026-04-20 18:19 | 36.40836 | 28.21254 | 26305 ft | 357 kts | 242° |
| 2026-04-20 18:19 | 36.39491 | 28.18692 | 27037 ft | 356 kts | 242° |
| 2026-04-20 18:19 | 36.38152 | 28.16144 | 27847 ft | 352 kts | 242° |
| 2026-04-20 18:20 | 36.36820 | 28.13611 | 28615 ft | 350 kts | 242° |
| 2026-04-20 18:20 | 36.35504 | 28.11110 | 29366 ft | 347 kts | 243° |
| 2026-04-20 18:20 | 36.34220 | 28.08637 | 30123 ft | 342 kts | 246° |
| 2026-04-20 18:20 | 36.33227 | 28.06008 | 30830 ft | 334 kts | 254° |
| 2026-04-20 18:21 | 36.32358 | 28.03307 | 31191 ft | 341 kts | 253° |
| 2026-04-20 18:21 | 36.31460 | 28.00566 | 31552 ft | 347 kts | 253° |
| 2026-04-20 18:21 | 36.30548 | 27.97795 | 31883 ft | 353 kts | 253° |
| 2026-04-20 18:21 | 36.29601 | 27.94921 | 31947 ft | 368 kts | 252° |
| 2026-04-20 18:22 | 36.28607 | 27.91912 | 31957 ft | 383 kts | 252° |
| 2026-04-20 18:22 | 36.27585 | 27.88827 | 31949 ft | 393 kts | 252° |
| 2026-04-20 18:22 | 36.25476 | 27.82465 | 31952 ft | 409 kts | 252° |
| 2026-04-20 18:23 | 36.23286 | 27.75874 | 31951 ft | 418 kts | 252° |
| 2026-04-20 18:23 | 36.21071 | 27.69221 | 31946 ft | 418 kts | 252° |
| 2026-04-20 18:24 | 36.18844 | 27.62545 | 31950 ft | 419 kts | 252° |
| 2026-04-20 18:24 | 36.16620 | 27.55886 | 31951 ft | 419 kts | 252° |
| 2026-04-20 18:25 | 36.14398 | 27.49244 | 31955 ft | 419 kts | 252° |
| 2026-04-20 18:25 | 36.12168 | 27.42591 | 31952 ft | 419 kts | 252° |
| 2026-04-20 18:26 | 36.09930 | 27.35899 | 31953 ft | 418 kts | 253° |
| 2026-04-20 18:26 | 36.07811 | 27.29230 | 31963 ft | 418 kts | 253° |
| 2026-04-20 18:27 | 36.05676 | 27.22547 | 31966 ft | 418 kts | 253° |
| 2026-04-20 18:27 | 36.03555 | 27.15927 | 31967 ft | 416 kts | 253° |
| 2026-04-20 18:28 | 36.01416 | 27.09266 | 31967 ft | 415 kts | 253° |
| 2026-04-20 18:28 | 35.99295 | 27.02673 | 31967 ft | 414 kts | 253° |
| 2026-04-20 18:29 | 35.97175 | 26.96103 | 31867 ft | 410 kts | 253° |
| 2026-04-20 18:29 | 35.96110 | 26.92804 | 31384 ft | 412 kts | 253° |
| 2026-04-20 18:29 | 35.95063 | 26.89568 | 30863 ft | 410 kts | 253° |
| 2026-04-20 18:30 | 35.93996 | 26.86274 | 30350 ft | 407 kts | 253° |
| 2026-04-20 18:30 | 35.92955 | 26.83063 | 29819 ft | 404 kts | 253° |
| 2026-04-20 18:30 | 35.91914 | 26.79851 | 29271 ft | 403 kts | 253° |
| 2026-04-20 18:30 | 35.90876 | 26.76678 | 28723 ft | 403 kts | 252° |
| 2026-04-20 18:31 | 35.89618 | 26.73584 | 28191 ft | 406 kts | 248° |
| 2026-04-20 18:31 | 35.88302 | 26.70468 | 27625 ft | 405 kts | 248° |
| 2026-04-20 18:31 | 35.87019 | 26.67426 | 27094 ft | 405 kts | 248° |
| 2026-04-20 18:31 | 35.85710 | 26.64326 | 26541 ft | 405 kts | 248° |
| 2026-04-20 18:32 | 35.84425 | 26.61274 | 25994 ft | 404 kts | 248° |
| 2026-04-20 18:32 | 35.83329 | 26.58121 | 25440 ft | 401 kts | 253° |
| 2026-04-20 18:32 | 35.82259 | 26.54943 | 24893 ft | 401 kts | 252° |
| 2026-04-20 18:32 | 35.81190 | 26.51825 | 24352 ft | 400 kts | 252° |
| 2026-04-20 18:33 | 35.80095 | 26.48646 | 23799 ft | 400 kts | 251° |
| 2026-04-20 18:33 | 35.79029 | 26.45561 | 23268 ft | 399 kts | 251° |
| 2026-04-20 18:33 | 35.77931 | 26.42389 | 22730 ft | 398 kts | 251° |
| 2026-04-20 18:33 | 35.76847 | 26.39258 | 22185 ft | 397 kts | 251° |
| 2026-04-20 18:34 | 35.75768 | 26.36147 | 21663 ft | 395 kts | 251° |
| 2026-04-20 18:34 | 35.74703 | 26.33081 | 21151 ft | 392 kts | 251° |
| 2026-04-20 18:34 | 35.73632 | 26.29999 | 20632 ft | 390 kts | 251° |
| 2026-04-20 18:34 | 35.72570 | 26.26944 | 20119 ft | 388 kts | 251° |
| 2026-04-20 18:35 | 35.71514 | 26.23912 | 19606 ft | 385 kts | 251° |
| 2026-04-20 18:35 | 35.70458 | 26.20883 | 19092 ft | 383 kts | 251° |
| 2026-04-20 18:35 | 35.69415 | 26.17893 | 18580 ft | 380 kts | 251° |
| 2026-04-20 18:35 | 35.68372 | 26.14907 | 18073 ft | 377 kts | 251° |
| 2026-04-20 18:36 | 35.67356 | 26.11999 | 17556 ft | 373 kts | 250° |
| 2026-04-20 18:36 | 35.66329 | 26.09063 | 16923 ft | 372 kts | 250° |
| 2026-04-20 18:36 | 35.65320 | 26.06182 | 16303 ft | 371 kts | 250° |
| 2026-04-20 18:36 | 35.64304 | 26.03285 | 15675 ft | 370 kts | 250° |
| 2026-04-20 18:37 | 35.63285 | 26.00380 | 15042 ft | 368 kts | 250° |
| 2026-04-20 18:37 | 35.62295 | 25.97560 | 14427 ft | 364 kts | 250° |
| 2026-04-20 18:37 | 35.61287 | 25.94693 | 13794 ft | 361 kts | 250° |
| 2026-04-20 18:37 | 35.60290 | 25.91860 | 13165 ft | 355 kts | 250° |
| 2026-04-20 18:38 | 35.59329 | 25.89131 | 12547 ft | 349 kts | 250° |
| 2026-04-20 18:38 | 35.58367 | 25.86402 | 11918 ft | 344 kts | 249° |
| 2026-04-20 18:38 | 35.57427 | 25.83747 | 11288 ft | 337 kts | 249° |
| 2026-04-20 18:38 | 35.56505 | 25.81146 | 10668 ft | 330 kts | 249° |
| 2026-04-20 18:39 | 35.55603 | 25.78604 | 10052 ft | 325 kts | 249° |
| 2026-04-20 18:39 | 35.54704 | 25.76072 | 9431 ft | 321 kts | 249° |
| 2026-04-20 18:39 | 35.53814 | 25.73568 | 8808 ft | 317 kts | 249° |
| 2026-04-20 18:39 | 35.52951 | 25.71135 | 8283 ft | 310 kts | 249° |
| 2026-04-20 18:40 | 35.52099 | 25.68738 | 7901 ft | 300 kts | 249° |
| 2026-04-20 18:40 | 35.51280 | 25.66438 | 7526 ft | 292 kts | 249° |
| 2026-04-20 18:40 | 35.50468 | 25.64160 | 7148 ft | 286 kts | 249° |
| 2026-04-20 18:40 | 35.49677 | 25.61943 | 6767 ft | 280 kts | 249° |
| 2026-04-20 18:41 | 35.48902 | 25.59772 | 6390 ft | 275 kts | 249° |
| 2026-04-20 18:41 | 35.48144 | 25.57650 | 6049 ft | 270 kts | 249° |
| 2026-04-20 18:41 | 35.47630 | 25.55486 | 5792 ft | 259 kts | 264° |
| 2026-04-20 18:41 | 35.47341 | 25.53362 | 5545 ft | 253 kts | 261° |
| 2026-04-20 18:42 | 35.47006 | 25.51277 | 5291 ft | 248 kts | 261° |
| 2026-04-20 18:42 | 35.46663 | 25.49204 | 5035 ft | 243 kts | 261° |
| 2026-04-20 18:42 | 35.46328 | 25.47199 | 4784 ft | 240 kts | 261° |
| 2026-04-20 18:42 | 35.45999 | 25.45226 | 4534 ft | 237 kts | 261° |
| 2026-04-20 18:43 | 35.45661 | 25.43265 | 4354 ft | 231 kts | 256° |
| 2026-04-20 18:43 | 35.44815 | 25.41627 | 4236 ft | 228 kts | 220° |
| 2026-04-20 18:43 | 35.43398 | 25.40970 | 4178 ft | 217 kts | 184° |
| 2026-04-20 18:43 | 35.41935 | 25.41381 | 3939 ft | 214 kts | 158° |
| 2026-04-20 18:44 | 35.40614 | 25.42144 | 3737 ft | 205 kts | 154° |
| 2026-04-20 18:44 | 35.39383 | 25.42942 | 3497 ft | 195 kts | 152° |
| 2026-04-20 18:44 | 35.38193 | 25.43742 | 3251 ft | 194 kts | 152° |
| 2026-04-20 18:44 | 35.36912 | 25.44147 | 2969 ft | 188 kts | 188° |
| 2026-04-20 18:45 | 35.35798 | 25.43463 | 2710 ft | 178 kts | 231° |
| 2026-04-20 18:45 | 35.35216 | 25.42197 | 2541 ft | 170 kts | 246° |
| 2026-04-20 18:45 | 35.34694 | 25.40884 | 2420 ft | 172 kts | 247° |
| 2026-04-20 18:45 | 35.34169 | 25.39537 | 2299 ft | 174 kts | 248° |
| 2026-04-20 18:46 | 35.33650 | 25.38196 | 2179 ft | 175 kts | 248° |
| 2026-04-20 18:46 | 35.33129 | 25.36845 | 2059 ft | 173 kts | 248° |
| 2026-04-20 18:46 | 35.32777 | 25.35475 | 1916 ft | 167 kts | 272° |
| 2026-04-20 18:46 | 35.32862 | 25.34115 | 1868 ft | 161 kts | 277° |
| 2026-04-20 18:47 | 35.32952 | 25.32762 | 1818 ft | 157 kts | 277° |
| 2026-04-20 18:47 | 35.33040 | 25.31471 | 1784 ft | 147 kts | 278° |
| 2026-04-20 18:47 | 35.33127 | 25.30225 | 1731 ft | 148 kts | 277° |
| 2026-04-20 18:47 | 35.33215 | 25.28953 | 1638 ft | 153 kts | 277° |
| 2026-04-20 18:48 | 35.33308 | 25.27637 | 1442 ft | 154 kts | 276° |
| 2026-04-20 18:48 | 35.33421 | 25.26350 | 1181 ft | 150 kts | 278° |
| 2026-04-20 18:48 | 35.33548 | 25.25113 | 943 ft | 143 kts | 276° |
| 2026-04-20 18:48 | 35.33631 | 25.23909 | 707 ft | 140 kts | 272° |
| 2026-04-20 18:49 | 35.33676 | 25.22738 | 505 ft | 136 kts | 272° |
| 2026-04-20 18:49 | 35.33736 | 25.21577 | 353 ft | 137 kts | 272° |
| 2026-04-20 18:49 | 35.33820 | 25.20402 | 223 ft | 138 kts | 273° |
| 2026-04-20 18:49 | 35.33896 | 25.19249 | 128 ft | 135 kts | 272° |
| 2026-04-20 18:50 | 35.33965 | 25.18172 | 91 ft | 111 kts | 273° |
| 2026-04-20 18:50 | 35.34023 | 25.17405 | 86 ft | 63 kts | 271° |
| 2026-04-20 18:50 | 35.34015 | 25.17160 | 85 ft | 16 kts | 247° |
| 2026-04-20 18:50 | 35.33980 | 25.17072 | 87 ft | 8 kts | 244° |
| 2026-04-20 18:51 | 35.33960 | 25.17018 | 88 ft | 7 kts | 248° |
| 2026-04-20 18:51 | 35.33929 | 25.16961 | 89 ft | 8 kts | 206° |
| 2026-04-20 18:51 | 35.33899 | 25.16953 | 92 ft | 2 kts | 190° |
| 2026-04-20 18:51 | 35.33892 | 25.16948 | 93 ft | 2 kts | 219° |
| 2026-04-20 18:52 | 35.33892 | 25.16919 | 94 ft | 0 kts | 304° |
| 2026-04-20 18:52 | 35.33897 | 25.16914 | 93 ft | 0 kts | 318° |